Main page
METAR-TAF:

METAR-TAF

Airports :

Cardiff Airport

Cardiff, Wales

latitude: 51-24N, longitude: 003-21W, elevation: 67 m

Current weather observation

The report was made 32 minutes ago, at 20:50 UTC
Wind 9 kt from the South
Temperature 11°C
Humidity 87%
Pressure 1022 hPa
Visibility 10 km or more

METAR: EGFF 132050Z AUTO 18009KT 9999 NCD 11/09 Q1022

Time: 21:22 (21:22 UTC)

Forecast

The report was made 4 hours and 19 minutes ago, at 17:03 UTC
Forecast valid from 13 at 18 UTC to 14 at 18 UTC
Wind 10 kt from the Southwest
Visibility 10 km or more
Scattered clouds at a height of 3000 ft
Probability 30% :
Temporary
from 13 at 21 UTC to 14 at 14 UTC
Wind 15 kt from the South/Southwest with gusts up to 25 kt
Probability 30% :
Temporary
from 13 at 23 UTC to 14 at 04 UTC
Visibility: 8000 m
light rain

TAF: EGFF 131703Z 1318/1418 22010KT 9999 SCT030 PROB30 TEMPO 1321/1414 20015G25KT PROB30 TEMPO 1323/1404 8000 -RA

Weather observations and forecasts of more than 4000 airports (METAR and TAF reports).

The available stations are represented by yellow and red dots on the map.

Hover mouse over dot to see the name of the station.

Then click to see weather observations and forecasts.

To change the map : click on the green buttons with a black cross to zoom in, on the green button with a dash to zoom out, or on the green arrows for adjacent maps.


METAR-TAF: